Weather History for KOGA - February, 2014

Change the Weather History Date:

Sunday, February 16, 2014

  Actual Average Record
Temperature  
Mean Temperature 42 °F -  
Max Temperature 57 °F 40 °F 71 °F (2011)
Min Temperature 27 °F 15 °F -12 °F (1979)
Degree Days  
Heating Degree Days 23    
Moisture  
Dew Point 32 °F    
Average Humidity 72    
Maximum Humidity 92    
Minimum Humidity 44    
Precipitation  
Precipitation 0.00 in - - ()
Sea Level Pressure  
Sea Level Pressure 29.79 in    
Wind  
Wind Speed 5 mph (SSW)    
Max Wind Speed 33 mph    
Max Gust Speed 43 mph    
Visibility 10 miles    
Events Rain    
Averages and records for this station are not official NWS values.
T = Trace of Precipitation, MM = Missing Value Source: NWS Daily Summary

Daily Weather History Graph

Daily Weather History Graph

Search for Another Location

Airport or City:

Trip Planner

Search our weather history database for the weather conditions in past years. The results will help you decide how hot, cold, wet, or windy it might be!

Date:

Astronomy

Feb. 16, 2014 Rise Set
Actual Time 6:40 AM MST 5:22 PM MST
Civil Twilight 6:12 AM MST 5:50 PM MST
Nautical Twilight 5:39 AM MST 6:23 PM MST
Astronomical Twilight 5:07 AM MST 6:55 PM MST
Moon 7:22 PM MST (2/16) 7:09 AM MST (2/16)
Length of Visible Light 11h 38m
Length of Day
10h 42m
Full, 97% of the Moon is Illuminated
Feb 16
Full
Feb 22
Last Quarter
Mar 1
New
Mar 8
First Quarter
Mar 16
Full

Hourly Weather History & Observations

Time (MST) Temp. Windchill Dew Point Humidity Pressure Visibility Wind Dir Wind Speed Gust Speed Precip Events Conditions
12:15 AM 28.8 °F - 26.4 °F 91% 30.02 in 10.0 mi Calm Calm - N/A   Clear
12:35 AM 28.8 °F - 26.6 °F 92% 30.02 in 10.0 mi Calm Calm - N/A   Clear
12:55 AM 28.4 °F - 26.2 °F 92% 30.02 in 10.0 mi Calm Calm - N/A   Clear
1:15 AM 27.9 °F 24.0 °F 25.7 °F 92% 30.00 in 10.0 mi SW 3.5 mph - N/A   Clear
1:35 AM 28.2 °F - 26.1 °F 92% 30.01 in 10.0 mi Calm Calm - N/A   Clear
1:55 AM 27.9 °F - 25.7 °F 92% 29.98 in 10.0 mi Calm Calm - N/A   Clear
2:15 AM 28.4 °F - 26.4 °F 92% 29.98 in 10.0 mi Calm Calm - N/A   Clear
2:35 AM 28.2 °F - 26.2 °F 92% 29.97 in 10.0 mi Calm Calm - N/A   Clear
2:55 AM 29.1 °F - 26.8 °F 91% 29.95 in 10.0 mi Calm Calm - N/A   Clear
3:15 AM 29.1 °F - 26.6 °F 90% 29.95 in 10.0 mi Calm Calm - N/A   Clear
3:35 AM 30.4 °F - 27.5 °F 89% 29.93 in 10.0 mi Calm Calm - N/A   Scattered Clouds
3:55 AM 30.7 °F - 27.5 °F 88% 29.92 in 10.0 mi Calm Calm - N/A   Scattered Clouds
4:15 AM 31.5 °F - 27.7 °F 86% 29.91 in 10.0 mi Calm Calm - N/A   Clear
4:35 AM 30.9 °F 27.5 °F 27.1 °F 86% 29.91 in 10.0 mi South 3.5 mph - N/A   Clear
4:55 AM 31.8 °F - 27.5 °F 84% 29.91 in 10.0 mi Calm Calm - N/A   Clear
5:15 AM 30.2 °F 26.7 °F 27.0 °F 88% 29.90 in 10.0 mi East 3.5 mph - N/A   Clear
5:35 AM 30.6 °F 25.8 °F 27.5 °F 88% 29.89 in 10.0 mi ESE 4.6 mph - N/A   Clear
5:55 AM 30.2 °F 24.3 °F 27.3 °F 89% 29.88 in 10.0 mi East 5.8 mph - N/A   Clear
6:15 AM 30.0 °F 25.2 °F 27.1 °F 89% 29.86 in 10.0 mi East 4.6 mph - N/A   Clear
6:35 AM 30.2 °F 25.4 °F 27.5 °F 90% 29.86 in 10.0 mi SE 4.6 mph - N/A   Clear
6:55 AM 30.2 °F 25.4 °F 27.5 °F 90% 29.86 in 10.0 mi ESE 4.6 mph - N/A   Clear
7:15 AM 30.9 °F 27.5 °F 28.2 °F 90% 29.86 in 10.0 mi East 3.5 mph - N/A   Clear
7:35 AM 31.5 °F 26.8 °F 28.4 °F 88% 29.85 in 10.0 mi East 4.6 mph - N/A   Clear
7:55 AM 32.4 °F 29.1 °F 29.7 °F 90% 29.85 in 10.0 mi ESE 3.5 mph - N/A   Clear
8:15 AM 34.7 °F 30.6 °F 30.9 °F 86% 29.84 in 10.0 mi SSE 4.6 mph - N/A   Clear
8:35 AM 36.5 °F 31.8 °F 31.1 °F 81% 29.84 in 10.0 mi SSE 5.8 mph - N/A   Scattered Clouds
8:55 AM 37.4 °F 31.4 °F 31.8 °F 80% 29.83 in 10.0 mi South 8.1 mph - N/A   Scattered Clouds
9:15 AM 39.6 °F 33.5 °F 32.2 °F 75% 29.82 in 10.0 mi South 9.2 mph - N/A   Clear
9:35 AM 40.3 °F 35.5 °F 32.9 °F 75% 29.80 in 10.0 mi South 6.9 mph 18.4 mph N/A   Scattered Clouds
9:55 AM 41.5 °F 35.0 °F 33.3 °F 72% 29.79 in 10.0 mi SSW 11.5 mph 19.6 mph N/A   Mostly Cloudy
10:15 AM 42.8 °F 37.0 °F 34.0 °F 71% 29.78 in 10.0 mi SSW 10.4 mph 17.3 mph N/A   Scattered Clouds
10:35 AM 43.7 °F 37.3 °F 34.7 °F 71% 29.77 in 10.0 mi SSW 12.7 mph - N/A   Scattered Clouds
10:55 AM 45.9 °F 39.4 °F 35.4 °F 67% 29.79 in 10.0 mi SSW 15.0 mph - N/A   Scattered Clouds
11:15 AM 45.5 °F 40.8 °F 34.9 °F 66% 29.77 in 10.0 mi South 9.2 mph 17.3 mph N/A   Scattered Clouds
11:35 AM 46.6 °F - 35.4 °F 65% 29.76 in 10.0 mi SSW 11.5 mph 19.6 mph N/A   Scattered Clouds
11:55 AM 47.7 °F - 35.6 °F 63% 29.75 in 10.0 mi SSW 13.8 mph - N/A   Scattered Clouds
12:15 PM 47.8 °F - 35.6 °F 63% 29.73 in 10.0 mi SSW 12.7 mph - N/A   Scattered Clouds
12:35 PM 48.9 °F - 35.8 °F 61% 29.72 in 10.0 mi SSW 9.2 mph 18.4 mph N/A   Scattered Clouds
12:55 PM 50.2 °F - 36.5 °F 59% 29.70 in 10.0 mi South 13.8 mph 19.6 mph N/A   Scattered Clouds
1:15 PM 50.9 °F - 36.9 °F 59% 29.69 in 10.0 mi SSW 11.5 mph - N/A   Scattered Clouds
1:35 PM 51.8 °F - 36.7 °F 56% 29.67 in 10.0 mi SSW 12.7 mph 17.3 mph N/A   Scattered Clouds
1:55 PM 52.9 °F - 37.4 °F 56% 29.66 in 10.0 mi SSW 12.7 mph - N/A   Clear
2:15 PM 53.6 °F - 37.4 °F 54% 29.66 in 10.0 mi South 13.8 mph - N/A   Clear
2:35 PM 52.9 °F - 36.9 °F 55% 29.66 in 10.0 mi SSW 13.8 mph - N/A   Clear
2:55 PM 52.0 °F - 36.9 °F 56% 29.67 in 10.0 mi SW 8.1 mph - N/A   Clear
3:15 PM 52.2 °F - 37.2 °F 57% 29.66 in 10.0 mi South 3.5 mph - N/A   Clear
3:35 PM 52.0 °F - 38.1 °F 59% 29.65 in 10.0 mi SE 3.5 mph - N/A   Clear
3:55 PM 55.8 °F - 37.9 °F 51% 29.64 in 10.0 mi South 9.2 mph - N/A   Clear
4:15 PM 57.9 °F - 37.6 °F 47% 29.64 in 10.0 mi South 6.9 mph - N/A   Clear
4:35 PM 57.7 °F - 38.7 °F 49% 29.64 in 10.0 mi South 5.8 mph - N/A   Clear
4:55 PM 57.0 °F - 38.8 °F 51% 29.64 in 10.0 mi SSE 3.5 mph - N/A   Clear
5:15 PM 55.4 °F - 38.5 °F 53% 29.63 in 10.0 mi South 4.6 mph - N/A   Clear
5:35 PM 52.3 °F - 38.1 °F 58% 29.64 in 10.0 mi SW 3.5 mph - N/A   Clear
5:55 PM 51.6 °F - 37.8 °F 59% 29.63 in 10.0 mi Calm Calm - N/A   Clear
6:15 PM 49.5 °F - 37.0 °F 62% 29.65 in 10.0 mi Calm Calm - N/A   Scattered Clouds
6:35 PM 45.7 °F 42.0 °F 36.5 °F 70% 29.67 in 10.0 mi WSW 6.9 mph - N/A   Scattered Clouds
6:55 PM 45.9 °F - 36.7 °F 70% 29.66 in 10.0 mi Calm Calm - N/A   Overcast
7:15 PM 42.8 °F 41.1 °F 36.0 °F 77% 29.67 in 10.0 mi WNW 3.5 mph - N/A   Mostly Cloudy
7:35 PM 44.1 °F 35.0 °F 36.9 °F 76% 29.73 in 10.0 mi West 24.2 mph 32.2 mph N/A   Mostly Cloudy
7:55 PM 47.8 °F - 39.2 °F 72% 29.73 in 10.0 mi WNW 19.6 mph 29.9 mph N/A Rain Light Rain
8:15 PM 47.1 °F - 37.6 °F 69% 29.71 in 10.0 mi NW 15.0 mph - N/A   Overcast
8:35 PM 45.7 °F 41.0 °F 36.7 °F 71% 29.71 in 10.0 mi WNW 9.2 mph - N/A   Mostly Cloudy
8:55 PM 42.1 °F 38.4 °F 35.6 °F 78% 29.73 in 10.0 mi WSW 5.8 mph - N/A   Scattered Clouds
9:15 PM 41.0 °F 37.1 °F 35.1 °F 79% 29.73 in 10.0 mi West 5.8 mph - N/A   Scattered Clouds
9:35 PM 43.5 °F 36.7 °F 34.3 °F 70% 29.76 in 10.0 mi West 13.8 mph 17.3 mph N/A   Overcast
9:55 PM 44.8 °F 37.4 °F 32.9 °F 63% 29.74 in 10.0 mi WNW 17.3 mph 25.3 mph N/A   Overcast
10:15 PM 45.9 °F 37.0 °F 31.1 °F 56% 29.74 in 10.0 mi WNW 26.5 mph 29.9 mph N/A   Mostly Cloudy
10:35 PM 46.8 °F - 26.6 °F 45% 29.75 in 10.0 mi WNW 25.3 mph 36.8 mph N/A   Mostly Cloudy
10:55 PM 46.6 °F - 25.5 °F 44% 29.77 in 10.0 mi WNW 26.5 mph 36.8 mph N/A   Mostly Cloudy
11:15 PM 44.8 °F 35.7 °F 25.3 °F 47% 29.79 in 10.0 mi WNW 25.3 mph 33.4 mph N/A   Scattered Clouds
11:35 PM 43.9 °F 33.8 °F 32.9 °F 65% 29.82 in 10.0 mi NNW 29.9 mph 42.6 mph N/A   Mostly Cloudy
11:55 PM 41.5 °F 30.0 °F 33.1 °F 72% 29.85 in 10.0 mi North 33.4 mph 40.3 mph N/A Rain Light Rain